createdAt,value
2017-02-17T00:00:15.104Z,28.9
2017-02-17T00:01:15.222Z,28.9
2017-02-17T00:02:15.264Z,28.9
2017-02-17T00:03:18.126Z,28.9
2017-02-17T00:04:15.556Z,28.9
2017-02-17T00:05:18.284Z,28.9
2017-02-17T00:06:15.576Z,28.9
2017-02-17T00:07:15.483Z,28.9
2017-02-17T00:08:15.430Z,28.9
2017-02-17T00:09:18.389Z,28.9
2017-02-17T00:10:18.470Z,28.9
2017-02-17T00:11:18.508Z,28.9
2017-02-17T00:12:18.552Z,28.9
2017-02-17T00:13:15.680Z,28.9
2017-02-17T00:14:18.660Z,28.9
2017-02-17T00:15:15.884Z,28.9
2017-02-17T00:16:18.912Z,28.9
2017-02-17T00:17:18.824Z,28.9
2017-02-17T00:18:18.875Z,28.8
2017-02-17T00:19:18.855Z,28.9
2017-02-17T00:20:18.918Z,28.9
2017-02-17T00:21:16.077Z,28.9
2017-02-17T00:22:16.397Z,28.9
2017-02-17T00:23:16.187Z,28.9
2017-02-17T00:24:19.103Z,28.9
2017-02-17T00:25:19.149Z,28.9
2017-02-17T00:26:19.292Z,28.9
2017-02-17T00:27:16.335Z,28.9
2017-02-17T00:28:16.565Z,28.9
2017-02-17T00:29:19.294Z,28.9
2017-02-17T00:30:16.631Z,28.8
2017-02-17T00:31:19.425Z,28.9
2017-02-17T00:32:17.348Z,28.9
2017-02-17T00:33:16.671Z,28.9
2017-02-17T00:34:19.748Z,28.9
2017-02-17T00:35:19.690Z,28.9
2017-02-17T00:36:16.857Z,28.9
2017-02-17T00:37:19.894Z,28.9
2017-02-17T00:38:16.871Z,28.9
2017-02-17T00:39:17.036Z,28.9
2017-02-17T00:40:17.257Z,28.9
2017-02-17T00:41:19.976Z,28.9
2017-02-17T00:42:17.158Z,28.9
2017-02-17T00:43:17.051Z,28.9
2017-02-17T00:44:20.044Z,28.9
2017-02-17T00:45:20.140Z,28.9
2017-02-17T00:46:17.603Z,28.9
2017-02-17T00:47:17.184Z,28.9
2017-02-17T00:48:17.362Z,28.9
2017-02-17T00:49:20.202Z,28.9
2017-02-17T00:50:17.344Z,28.9
2017-02-17T00:51:20.343Z,28.9
2017-02-17T00:52:20.485Z,28.9
2017-02-17T00:53:20.354Z,28.9
2017-02-17T00:54:20.373Z,28.9
2017-02-17T00:55:17.660Z,28.9
2017-02-17T00:56:17.590Z,28.9
2017-02-17T00:57:17.562Z,28.9
2017-02-17T00:58:17.788Z,28.9
2017-02-17T00:59:20.460Z,28.9
2017-02-17T01:00:17.744Z,28.8
2017-02-17T01:01:17.701Z,28.9
2017-02-17T01:02:20.605Z,28.9
2017-02-17T01:03:17.775Z,28.9
2017-02-17T01:04:18.073Z,28.9
2017-02-17T01:05:18.023Z,28.9
2017-02-17T01:06:17.909Z,28.8
2017-02-17T01:07:20.923Z,28.9
2017-02-17T01:08:18.155Z,28.9
2017-02-17T01:09:18.236Z,28.9
2017-02-17T01:10:21.342Z,28.9
2017-02-17T01:11:18.418Z,28.9
2017-02-17T01:12:21.280Z,28.9
2017-02-17T01:13:21.372Z,28.9
2017-02-17T01:14:18.376Z,28.9
2017-02-17T01:15:21.467Z,28.9
2017-02-17T01:16:18.796Z,28.9
2017-02-17T01:17:18.563Z,28.9
2017-02-17T01:18:21.465Z,28.9
2017-02-17T01:19:18.615Z,28.9
2017-02-17T01:20:18.824Z,28.9
2017-02-17T01:21:21.621Z,28.8
2017-02-17T01:22:21.996Z,28.8
2017-02-17T01:23:19.043Z,28.8
2017-02-17T01:24:18.933Z,28.8
2017-02-17T01:25:21.930Z,28.9
2017-02-17T01:26:22.055Z,28.9
2017-02-17T01:27:22.061Z,28.9
2017-02-17T01:28:19.432Z,28.9
2017-02-17T01:29:22.670Z,28.9
2017-02-17T01:30:22.155Z,28.8
2017-02-17T01:31:19.243Z,28.8
2017-02-17T01:32:22.141Z,28.8
2017-02-17T01:33:19.276Z,28.9
2017-02-17T01:34:19.627Z,28.8
2017-02-17T01:35:19.358Z,28.8
2017-02-17T01:36:19.473Z,28.8
2017-02-17T01:37:19.617Z,28.8
2017-02-17T01:38:19.684Z,28.8
2017-02-17T01:39:19.791Z,28.9
2017-02-17T01:40:19.857Z,28.8
2017-02-17T01:41:19.733Z,28.8
2017-02-17T01:42:19.802Z,28.8
2017-02-17T01:43:19.846Z,28.9
2017-02-17T01:44:22.960Z,28.8
2017-02-17T01:45:23.693Z,28.8
2017-02-17T01:46:23.314Z,28.8
2017-02-17T01:47:22.987Z,28.8
2017-02-17T01:48:23.176Z,28.8
2017-02-17T01:49:23.176Z,28.8
2017-02-17T01:50:20.281Z,28.8
2017-02-17T01:51:23.201Z,28.8
2017-02-17T01:52:23.381Z,28.8
2017-02-17T01:53:23.351Z,28.8
2017-02-17T01:54:20.419Z,28.8
2017-02-17T01:55:20.546Z,28.8
2017-02-17T01:56:20.530Z,28.8
2017-02-17T01:57:23.485Z,28.8
2017-02-17T01:58:20.960Z,28.8
2017-02-17T01:59:23.681Z,28.8
2017-02-17T02:00:20.886Z,28.8
2017-02-17T02:01:23.756Z,28.8
2017-02-17T02:02:23.815Z,28.8
2017-02-17T02:03:20.820Z,28.8
2017-02-17T02:04:23.855Z,28.8
2017-02-17T02:05:21.188Z,28.8
2017-02-17T02:06:24.033Z,28.8
2017-02-17T02:07:21.112Z,28.8
2017-02-17T02:08:21.154Z,28.8
2017-02-17T02:09:21.211Z,28.8
2017-02-17T02:10:21.384Z,28.8
2017-02-17T02:11:24.120Z,28.8
2017-02-17T02:12:24.226Z,28.8
2017-02-17T02:13:21.285Z,28.8
2017-02-17T02:14:21.541Z,28.8
2017-02-17T02:15:24.395Z,28.8
2017-02-17T02:16:21.693Z,28.8
2017-02-17T02:17:24.565Z,28.8
2017-02-17T02:18:24.604Z,28.8
2017-02-17T02:19:24.650Z,28.8
2017-02-17T02:20:21.893Z,28.8
2017-02-17T02:21:24.681Z,28.8
2017-02-17T02:22:21.976Z,28.8
2017-02-17T02:23:24.864Z,28.8
2017-02-17T02:24:21.954Z,28.8
2017-02-17T02:25:25.010Z,28.8
2017-02-17T02:26:22.150Z,28.8
2017-02-17T02:27:25.093Z,28.8
2017-02-17T02:28:25.147Z,28.8
2017-02-17T02:29:22.308Z,28.8
2017-02-17T02:30:22.321Z,28.8
2017-02-17T02:31:22.311Z,28.8
2017-02-17T02:32:22.427Z,28.8
2017-02-17T02:33:25.348Z,28.8
2017-02-17T02:34:25.345Z,28.8
2017-02-17T02:35:25.501Z,28.8
2017-02-17T02:36:22.660Z,28.8
2017-02-17T02:37:25.425Z,28.8
2017-02-17T02:38:25.450Z,28.8
2017-02-17T02:39:22.646Z,28.8
2017-02-17T02:40:22.773Z,28.8
2017-02-17T02:41:22.844Z,28.8
2017-02-17T02:42:25.741Z,28.8
2017-02-17T02:43:25.872Z,28.8
2017-02-17T02:44:22.897Z,28.8
2017-02-17T02:45:22.968Z,28.8
2017-02-17T02:46:25.874Z,28.8
2017-02-17T02:47:23.132Z,28.8
2017-02-17T02:48:26.056Z,28.8
2017-02-17T02:49:23.195Z,28.8
2017-02-17T02:50:26.156Z,28.8
2017-02-17T02:51:26.253Z,28.8
2017-02-17T02:52:23.363Z,28.8
2017-02-17T02:53:23.836Z,28.8
2017-02-17T02:54:23.416Z,28.8
2017-02-17T02:55:23.425Z,28.8
2017-02-17T02:56:26.425Z,28.8
2017-02-17T02:57:23.631Z,28.8
2017-02-17T02:58:26.421Z,28.8
2017-02-17T02:59:23.749Z,28.8
2017-02-17T03:00:26.576Z,28.8
2017-02-17T03:01:26.527Z,28.8
2017-02-17T03:02:27.305Z,28.8
2017-02-17T03:03:23.894Z,28.8
2017-02-17T03:04:23.912Z,28.8
2017-02-17T03:05:23.978Z,28.8
2017-02-17T03:06:26.892Z,28.8
2017-02-17T03:07:26.837Z,28.8
2017-02-17T03:08:27.579Z,28.8
2017-02-17T03:09:24.103Z,28.8
2017-02-17T03:10:27.053Z,28.8
2017-02-17T03:11:24.127Z,28.8
2017-02-17T03:12:24.913Z,28.8
2017-02-17T03:13:27.240Z,28.8
2017-02-17T03:14:27.373Z,28.7
2017-02-17T03:15:24.523Z,28.8
2017-02-17T03:16:25.368Z,28.8
2017-02-17T03:17:28.114Z,28.8
2017-02-17T03:18:24.659Z,28.8
2017-02-17T03:19:28.814Z,28.7
2017-02-17T03:20:24.642Z,28.8
2017-02-17T03:21:24.783Z,28.8
2017-02-17T03:22:27.632Z,28.8
2017-02-17T03:23:24.634Z,28.8
2017-02-17T03:24:27.657Z,28.8
2017-02-17T03:25:27.657Z,28.8
2017-02-17T03:26:24.844Z,28.8
2017-02-17T03:27:24.980Z,28.8
2017-02-17T03:28:24.899Z,28.8
2017-02-17T03:29:27.911Z,28.8
2017-02-17T03:30:27.899Z,28.8
2017-02-17T03:31:25.062Z,28.8
2017-02-17T03:32:28.015Z,28.8
2017-02-17T03:33:25.226Z,28.8
2017-02-17T03:34:28.145Z,28.8
2017-02-17T03:35:28.201Z,28.8
2017-02-17T03:36:25.340Z,28.8
2017-02-17T03:37:28.164Z,28.8
2017-02-17T03:38:25.310Z,28.8
2017-02-17T03:39:28.308Z,28.8
2017-02-17T03:40:28.286Z,28.8
2017-02-17T03:41:25.634Z,28.8
2017-02-17T03:42:28.479Z,28.8
2017-02-17T03:43:25.726Z,28.8
2017-02-17T03:44:25.870Z,28.8
2017-02-17T03:45:25.811Z,28.8
2017-02-17T03:46:28.908Z,28.8
2017-02-17T03:47:26.020Z,28.8
2017-02-17T03:48:25.915Z,28.8
2017-02-17T03:49:28.732Z,28.8
2017-02-17T03:50:28.826Z,28.8
2017-02-17T03:51:29.079Z,28.8
2017-02-17T03:52:28.889Z,28.8
2017-02-17T03:53:28.838Z,28.8
2017-02-17T03:54:26.019Z,28.7
2017-02-17T03:55:26.169Z,28.8
2017-02-17T03:56:29.085Z,28.8
2017-02-17T03:57:29.196Z,28.8
2017-02-17T03:58:29.210Z,28.8
2017-02-17T03:59:29.199Z,28.8
2017-02-17T04:00:29.169Z,28.8
2017-02-17T04:01:26.250Z,28.8
2017-02-17T04:02:26.587Z,28.8
2017-02-17T04:03:29.480Z,28.8
2017-02-17T04:04:29.567Z,28.8
2017-02-17T04:05:26.625Z,28.8
2017-02-17T04:06:29.614Z,28.7
2017-02-17T04:07:29.648Z,28.8
2017-02-17T04:08:30.379Z,28.8
2017-02-17T04:09:29.787Z,28.8
2017-02-17T04:10:26.826Z,28.8
2017-02-17T04:11:26.927Z,28.7
2017-02-17T04:12:27.066Z,28.8
2017-02-17T04:13:29.956Z,28.8
2017-02-17T04:14:29.819Z,28.8
2017-02-17T04:15:30.035Z,28.8
2017-02-17T04:16:27.095Z,28.8
2017-02-17T04:17:30.006Z,28.8
2017-02-17T04:18:27.023Z,28.8
2017-02-17T04:19:30.087Z,28.8
2017-02-17T04:20:27.118Z,28.8
2017-02-17T04:21:27.275Z,28.8
2017-02-17T04:22:30.110Z,28.8
2017-02-17T04:23:30.277Z,28.8
2017-02-17T04:24:30.242Z,28.8
2017-02-17T04:25:30.298Z,28.8
2017-02-17T04:26:30.363Z,28.8
2017-02-17T04:27:27.530Z,28.7
2017-02-17T04:28:30.419Z,28.8
2017-02-17T04:29:30.558Z,28.7
2017-02-17T04:30:30.702Z,28.8
2017-02-17T04:31:30.656Z,28.8
2017-02-17T04:32:27.947Z,28.8
2017-02-17T04:33:27.829Z,28.8
2017-02-17T04:34:28.016Z,28.8
2017-02-17T04:35:30.837Z,28.8
2017-02-17T04:36:30.907Z,28.8
2017-02-17T04:37:27.998Z,28.8
2017-02-17T04:38:31.011Z,28.8
2017-02-17T04:39:30.891Z,28.8
2017-02-17T04:40:28.198Z,28.8
2017-02-17T04:41:30.994Z,28.8
2017-02-17T04:42:28.901Z,28.8
2017-02-17T04:43:31.161Z,28.8
2017-02-17T04:44:28.175Z,28.8
2017-02-17T04:45:28.901Z,28.8
2017-02-17T04:46:31.968Z,28.8
2017-02-17T04:47:31.222Z,28.8
2017-02-17T04:48:28.407Z,28.8
2017-02-17T04:49:29.215Z,28.8
2017-02-17T04:50:28.718Z,28.7
2017-02-17T04:51:28.711Z,28.8
2017-02-17T04:52:31.443Z,28.8
2017-02-17T04:53:31.603Z,28.8
2017-02-17T04:54:31.551Z,28.8
2017-02-17T04:55:29.456Z,28.8
2017-02-17T04:56:31.757Z,28.8
2017-02-17T04:57:31.620Z,28.8
2017-02-17T04:58:31.650Z,28.8
2017-02-17T04:59:31.860Z,28.8
2017-02-17T05:00:31.805Z,28.8
2017-02-17T05:01:29.189Z,28.8
2017-02-17T05:02:31.987Z,28.8
2017-02-17T05:03:29.177Z,28.7
2017-02-17T05:04:32.140Z,28.8
2017-02-17T05:05:29.265Z,28.8
2017-02-17T05:06:29.321Z,28.8
2017-02-17T05:07:29.441Z,28.7
2017-02-17T05:08:29.269Z,28.8
2017-02-17T05:09:29.400Z,28.8
2017-02-17T05:10:32.298Z,28.8
2017-02-17T05:11:29.476Z,28.8
2017-02-17T05:12:32.289Z,28.8
2017-02-17T05:13:32.331Z,28.8
2017-02-17T05:14:32.408Z,28.8
2017-02-17T05:15:29.643Z,28.8
2017-02-17T05:16:32.502Z,28.8
2017-02-17T05:17:29.852Z,28.8
2017-02-17T05:18:32.719Z,28.7
2017-02-17T05:19:29.835Z,28.8
2017-02-17T05:20:32.895Z,28.7
2017-02-17T05:21:32.835Z,28.8
2017-02-17T05:22:30.117Z,28.8
2017-02-17T05:23:32.953Z,28.7
2017-02-17T05:24:30.089Z,28.8
2017-02-17T05:25:33.116Z,28.8
2017-02-17T05:26:30.115Z,28.7
2017-02-17T05:27:30.175Z,28.7
2017-02-17T05:28:30.184Z,28.8
2017-02-17T05:29:30.173Z,28.8
2017-02-17T05:30:33.162Z,28.7
2017-02-17T05:31:33.182Z,28.8
2017-02-17T05:32:33.297Z,28.8
2017-02-17T05:33:30.838Z,28.7
2017-02-17T05:34:33.299Z,28.8
2017-02-17T05:35:33.427Z,28.8
2017-02-17T05:36:33.381Z,28.7
2017-02-17T05:37:30.639Z,28.8
2017-02-17T05:38:33.576Z,28.8
2017-02-17T05:39:31.097Z,28.7
2017-02-17T05:40:30.748Z,28.7
2017-02-17T05:41:33.771Z,28.7
2017-02-17T05:42:33.846Z,28.7
2017-02-17T05:43:30.921Z,28.7
2017-02-17T05:44:30.887Z,28.7
2017-02-17T05:45:34.107Z,28.7
2017-02-17T05:46:33.952Z,28.7
2017-02-17T05:47:33.962Z,28.7
2017-02-17T05:48:31.322Z,28.7
2017-02-17T05:49:34.237Z,28.7
2017-02-17T05:50:34.161Z,28.7
2017-02-17T05:51:34.453Z,28.7
2017-02-17T05:52:34.438Z,28.8
2017-02-17T05:53:31.679Z,28.7
2017-02-17T05:54:34.621Z,28.7
2017-02-17T05:55:34.669Z,28.8
2017-02-17T05:56:34.707Z,28.8
2017-02-17T05:57:34.978Z,28.8
2017-02-17T05:58:31.958Z,28.8
2017-02-17T05:59:31.907Z,28.7
2017-02-17T06:00:32.058Z,28.8
2017-02-17T06:01:34.964Z,28.8
2017-02-17T06:02:34.982Z,28.8
2017-02-17T06:03:32.460Z,28.8
2017-02-17T06:04:32.114Z,28.8
2017-02-17T06:05:35.193Z,28.8
2017-02-17T06:06:32.240Z,28.8
2017-02-17T06:07:32.307Z,28.8
2017-02-17T06:08:35.190Z,28.8
2017-02-17T06:09:32.621Z,28.7
2017-02-17T06:10:32.445Z,28.8
2017-02-17T06:11:35.258Z,28.8
2017-02-17T06:12:35.381Z,28.7
2017-02-17T06:13:35.310Z,28.8
2017-02-17T06:14:35.411Z,28.8
2017-02-17T06:15:35.805Z,28.8
2017-02-17T06:16:35.536Z,28.8
2017-02-17T06:17:32.851Z,28.8
2017-02-17T06:18:35.600Z,28.8
2017-02-17T06:19:32.916Z,28.8
2017-02-17T06:20:35.675Z,28.8
2017-02-17T06:21:36.005Z,28.8
2017-02-17T06:22:35.841Z,28.7
2017-02-17T06:23:33.052Z,28.8
2017-02-17T06:24:35.861Z,28.8
2017-02-17T06:25:33.085Z,28.7
2017-02-17T06:26:33.167Z,28.8
2017-02-17T06:27:33.656Z,28.8
2017-02-17T06:28:33.278Z,28.8
2017-02-17T06:29:36.258Z,28.8
2017-02-17T06:30:36.385Z,28.8
2017-02-17T06:31:33.618Z,28.8
2017-02-17T06:32:33.469Z,28.8
2017-02-17T06:33:36.659Z,28.8
2017-02-17T06:34:33.670Z,28.8
2017-02-17T06:35:33.580Z,28.8
2017-02-17T06:36:33.689Z,28.8
2017-02-17T06:37:33.590Z,28.8
2017-02-17T06:38:36.548Z,28.8
2017-02-17T06:39:34.039Z,28.8
2017-02-17T06:40:36.648Z,28.8
2017-02-17T06:41:36.735Z,28.8
2017-02-17T06:42:36.844Z,28.8
2017-02-17T06:43:34.036Z,28.8
2017-02-17T06:44:33.962Z,28.8
2017-02-17T06:45:37.142Z,28.8
2017-02-17T06:46:36.988Z,28.8
2017-02-17T06:47:36.994Z,28.8
2017-02-17T06:48:34.280Z,28.8
2017-02-17T06:49:34.326Z,28.8
2017-02-17T06:50:37.135Z,28.8
2017-02-17T06:51:37.368Z,28.9
2017-02-17T06:52:37.387Z,28.9
2017-02-17T06:53:37.301Z,28.9
2017-02-17T06:54:37.428Z,28.9
2017-02-17T06:55:34.451Z,28.9
2017-02-17T06:56:37.432Z,28.9
2017-02-17T06:57:34.807Z,29
2017-02-17T06:58:37.657Z,28.9
2017-02-17T06:59:37.649Z,29
2017-02-17T07:00:34.922Z,29
2017-02-17T07:01:34.787Z,29
2017-02-17T07:02:34.873Z,29
2017-02-17T07:03:37.999Z,29
2017-02-17T07:04:34.986Z,29.1
2017-02-17T07:05:38.058Z,29.1
2017-02-17T07:06:37.891Z,29.1
2017-02-17T07:07:38.081Z,29.1
2017-02-17T07:08:38.093Z,29.1
2017-02-17T07:09:35.575Z,29.2
2017-02-17T07:10:36.021Z,29.2
2017-02-17T07:11:38.124Z,29.2
2017-02-17T07:12:36.319Z,29.2
2017-02-17T07:13:38.286Z,29.2
2017-02-17T07:14:38.255Z,29.2
2017-02-17T07:15:35.916Z,29.2
2017-02-17T07:16:35.687Z,29.3
2017-02-17T07:17:35.625Z,29.3
2017-02-17T07:18:35.729Z,29.3
2017-02-17T07:19:35.638Z,29.3
2017-02-17T07:20:38.620Z,29.4
2017-02-17T07:21:38.882Z,29.4
2017-02-17T07:22:39.883Z,29.3
2017-02-17T07:23:36.441Z,29.4
2017-02-17T07:24:35.889Z,29.4
2017-02-17T07:25:38.720Z,29.4
2017-02-17T07:26:35.980Z,29.4
2017-02-17T07:27:37.291Z,29.4
2017-02-17T07:28:35.881Z,29.5
2017-02-17T07:29:38.806Z,29.5
2017-02-17T07:30:36.778Z,29.5
2017-02-17T07:31:36.058Z,29.5
2017-02-17T07:32:38.891Z,29.5
2017-02-17T07:33:36.456Z,29.5
2017-02-17T07:34:36.150Z,29.5
2017-02-17T07:35:36.345Z,29.5
2017-02-17T07:36:37.449Z,29.5
2017-02-17T07:37:36.309Z,29.5
2017-02-17T07:38:36.609Z,29.6
2017-02-17T07:39:36.481Z,29.6
2017-02-17T07:40:36.459Z,29.6
2017-02-17T07:41:36.672Z,29.6
2017-02-17T07:42:36.699Z,29.6
2017-02-17T07:43:39.512Z,29.6
2017-02-17T07:44:37.121Z,29.6
2017-02-17T07:45:39.678Z,29.6
2017-02-17T07:46:39.849Z,29.6
2017-02-17T07:47:36.941Z,29.7
2017-02-17T07:48:36.862Z,29.7
2017-02-17T07:49:36.876Z,29.7
2017-02-17T07:50:37.834Z,29.7
2017-02-17T07:51:36.966Z,29.7
2017-02-17T07:52:39.995Z,29.7
2017-02-17T07:53:39.917Z,29.7
2017-02-17T07:54:37.173Z,29.7
2017-02-17T07:55:37.226Z,29.7
2017-02-17T07:56:37.648Z,29.7
2017-02-17T07:57:40.159Z,29.8
2017-02-17T07:58:37.274Z,29.8
2017-02-17T07:59:37.379Z,29.8
2017-02-17T08:00:37.491Z,29.8
2017-02-17T08:01:37.363Z,29.8
2017-02-17T08:02:40.695Z,29.8
2017-02-17T08:03:37.534Z,29.8
2017-02-17T08:04:37.636Z,29.8
2017-02-17T08:05:37.611Z,29.8
2017-02-17T08:06:40.488Z,29.8
2017-02-17T08:07:37.688Z,29.8
2017-02-17T08:08:40.853Z,29.8
2017-02-17T08:09:40.811Z,29.9
2017-02-17T08:10:37.972Z,29.8
2017-02-17T08:11:38.063Z,29.9
2017-02-17T08:12:40.974Z,29.9
2017-02-17T08:13:38.157Z,29.9
2017-02-17T08:14:38.342Z,29.9
2017-02-17T08:15:38.200Z,29.9
2017-02-17T08:16:41.133Z,29.9
2017-02-17T08:17:41.206Z,29.9
2017-02-17T08:18:41.317Z,29.9
2017-02-17T08:19:38.439Z,29.9
2017-02-17T08:20:41.323Z,29.9
2017-02-17T08:21:38.645Z,30
2017-02-17T08:22:41.470Z,29.9
2017-02-17T08:23:38.835Z,29.9
2017-02-17T08:24:41.594Z,30
2017-02-17T08:25:38.942Z,30
2017-02-17T08:26:39.011Z,30
2017-02-17T08:27:38.899Z,30
2017-02-17T08:28:42.022Z,30
2017-02-17T08:29:42.002Z,30
2017-02-17T08:30:39.230Z,30
2017-02-17T08:31:42.184Z,30
2017-02-17T08:32:39.413Z,30
2017-02-17T08:33:42.259Z,30
2017-02-17T08:34:42.319Z,30
2017-02-17T08:35:42.380Z,30.1
2017-02-17T08:36:40.156Z,30.1
2017-02-17T08:37:42.367Z,30.1
2017-02-17T08:38:39.527Z,30
2017-02-17T08:39:39.499Z,30.1
2017-02-17T08:40:42.423Z,30.1
2017-02-17T08:41:39.564Z,30.1
2017-02-17T08:42:42.555Z,30.1
2017-02-17T08:43:39.757Z,30.1
2017-02-17T08:44:42.684Z,30.1
2017-02-17T08:45:39.728Z,30.1
2017-02-17T08:46:43.237Z,30.1
2017-02-17T08:47:42.767Z,30.1
2017-02-17T08:48:42.714Z,30.1
2017-02-17T08:49:39.876Z,30.2
2017-02-17T08:50:40.155Z,30.2
2017-02-17T08:51:40.637Z,30.2
2017-02-17T08:52:40.104Z,30.2
2017-02-17T08:53:43.157Z,30.2
2017-02-17T08:54:40.395Z,30.2
2017-02-17T08:55:40.618Z,30.2
2017-02-17T08:56:40.339Z,30.2
2017-02-17T08:57:43.320Z,30.2
2017-02-17T08:58:40.412Z,30.3
2017-02-17T08:59:40.545Z,30.2
2017-02-17T09:00:40.460Z,30.2
2017-02-17T09:01:43.723Z,30.2
2017-02-17T09:02:40.708Z,30.3
2017-02-17T09:03:43.621Z,30.3
2017-02-17T09:04:43.726Z,30.3
2017-02-17T09:05:40.791Z,30.3
2017-02-17T09:06:40.952Z,30.3
2017-02-17T09:12:51.257Z,30.2
2017-02-17T09:13:51.139Z,30.2
2017-02-17T09:14:53.888Z,30.2
2017-02-17T09:15:51.258Z,30.3
2017-02-17T09:16:54.214Z,30.3
2017-02-17T09:17:54.179Z,30.3
2017-02-17T09:18:51.375Z,30.3
2017-02-17T09:19:54.216Z,30.4
2017-02-17T09:20:51.316Z,30.4
2017-02-17T09:21:51.539Z,30.4
2017-02-17T09:22:54.380Z,30.4
2017-02-17T09:23:54.359Z,30.4
2017-02-17T09:24:54.755Z,30.4
2017-02-17T09:25:51.608Z,30.4
2017-02-17T09:26:53.632Z,30.4
2017-02-17T09:27:54.601Z,30.4
2017-02-17T09:28:54.643Z,30.5
2017-02-17T09:29:51.849Z,30.4
2017-02-17T09:30:51.947Z,30.4
2017-02-17T09:31:51.985Z,30.5
2017-02-17T09:32:54.857Z,30.5
2017-02-17T09:33:52.698Z,30.5
2017-02-17T09:34:54.902Z,30.5
2017-02-17T09:35:52.194Z,30.5
2017-02-17T09:36:55.263Z,30.5
2017-02-17T09:37:52.209Z,30.5
2017-02-17T09:38:52.364Z,30.5
2017-02-17T09:39:55.269Z,30.5
2017-02-17T09:40:55.278Z,30.5
2017-02-17T09:41:55.283Z,30.5
2017-02-17T09:42:52.633Z,30.5
2017-02-17T09:43:52.648Z,30.6
2017-02-17T09:44:55.504Z,30.6
2017-02-17T09:45:57.110Z,30.6
2017-02-17T09:46:55.755Z,30.6
2017-02-17T09:47:56.236Z,30.6
2017-02-17T09:48:53.113Z,30.6
2017-02-17T09:49:52.870Z,30.6
2017-02-17T09:50:55.757Z,30.6
2017-02-17T09:51:55.790Z,30.6
2017-02-17T09:52:55.900Z,30.6
2017-02-17T09:53:55.867Z,30.6
2017-02-17T09:54:56.090Z,30.6
2017-02-17T09:55:55.960Z,30.6
2017-02-17T09:56:56.053Z,30.6
2017-02-17T09:57:53.410Z,30.6
2017-02-17T09:58:53.364Z,30.6
2017-02-17T09:59:54.705Z,30.6
2017-02-17T10:00:53.636Z,30.6
2017-02-17T10:01:56.502Z,30.7
2017-02-17T10:02:53.717Z,30.7
2017-02-17T10:03:56.571Z,30.7
2017-02-17T10:04:53.691Z,30.7
2017-02-17T10:05:53.906Z,30.7
2017-02-17T10:06:56.754Z,30.7
2017-02-17T10:07:56.685Z,30.7
2017-02-17T10:08:56.839Z,30.7
2017-02-17T10:09:53.881Z,30.8
2017-02-17T10:10:56.792Z,30.8
2017-02-17T10:11:54.006Z,30.8
2017-02-17T10:12:53.990Z,30.8
2017-02-17T10:13:54.202Z,30.8
2017-02-17T10:14:56.912Z,30.8
2017-02-17T10:15:57.042Z,30.8
2017-02-17T10:16:57.015Z,30.8
2017-02-17T10:17:54.327Z,30.8
2017-02-17T10:18:57.019Z,30.8
2017-02-17T10:19:57.203Z,30.8
2017-02-17T10:20:57.015Z,30.8
2017-02-17T10:21:54.870Z,30.8
2017-02-17T10:22:57.224Z,30.9
2017-02-17T10:23:57.349Z,30.9
2017-02-17T10:24:57.509Z,30.9
2017-02-17T10:25:57.399Z,30.9
2017-02-17T10:26:55.667Z,30.9
2017-02-17T10:27:57.470Z,30.9
2017-02-17T10:28:54.743Z,30.9
2017-02-17T10:29:54.603Z,30.9
2017-02-17T10:30:54.679Z,30.9
2017-02-17T10:31:54.817Z,30.9
2017-02-17T10:32:54.834Z,30.9
2017-02-17T10:33:54.750Z,30.9
2017-02-17T10:34:54.822Z,30.9
2017-02-17T10:35:55.541Z,30.9
2017-02-17T10:36:54.945Z,31
2017-02-17T10:37:57.936Z,31
2017-02-17T10:38:58.020Z,31
2017-02-17T10:39:58.051Z,31
2017-02-17T10:40:58.166Z,31
2017-02-17T10:41:58.892Z,31
2017-02-17T10:42:55.082Z,31
2017-02-17T10:43:55.250Z,31
2017-02-17T10:44:55.196Z,31
2017-02-17T10:45:56.066Z,31
2017-02-17T10:46:55.572Z,31
2017-02-17T10:47:58.327Z,31
2017-02-17T10:48:58.191Z,31
2017-02-17T10:49:55.262Z,31
2017-02-17T10:50:58.272Z,31
2017-02-17T10:51:58.468Z,31
2017-02-17T10:52:55.441Z,31
2017-02-17T10:53:55.643Z,31
2017-02-17T10:54:58.480Z,31
2017-02-17T10:55:55.706Z,31
2017-02-17T10:56:55.692Z,31
2017-02-17T10:57:59.287Z,31
2017-02-17T10:58:56.474Z,31
2017-02-17T10:59:56.393Z,31
2017-02-17T11:00:56.030Z,31
2017-02-17T11:01:58.966Z,31
2017-02-17T11:02:56.088Z,31
2017-02-17T11:03:56.282Z,31.1
2017-02-17T11:04:56.240Z,31.1
2017-02-17T11:05:59.073Z,31
2017-02-17T11:06:56.193Z,30.9
2017-02-17T11:07:59.746Z,30.9
2017-02-17T11:08:59.923Z,30.8
2017-02-17T11:09:56.397Z,30.7
2017-02-17T11:10:56.543Z,30.7
2017-02-17T11:12:00.085Z,30.6
2017-02-17T11:13:00.747Z,30.5
2017-02-17T11:13:56.756Z,30.4
2017-02-17T11:14:56.691Z,30.4
2017-02-17T11:16:00.972Z,30.3
2017-02-17T11:16:58.066Z,30.2
2017-02-17T11:17:57.146Z,30
2017-02-17T11:18:57.068Z,29.9
2017-02-17T11:19:57.502Z,29.8
2017-02-17T11:21:00.595Z,29.8
2017-02-17T11:22:00.150Z,29.7
2017-02-17T11:22:57.765Z,29.6
2017-02-17T11:24:00.406Z,29.5
2017-02-17T11:24:57.461Z,29.5
2017-02-17T11:26:00.397Z,29.4
2017-02-17T11:27:01.716Z,29.3
2017-02-17T11:27:58.782Z,29.3
2017-02-17T11:28:57.654Z,29.3
2017-02-17T11:30:00.599Z,29.3
2017-02-17T11:31:00.662Z,29.3
2017-02-17T11:31:57.596Z,29.3
2017-02-17T11:33:00.648Z,29.3
2017-02-17T11:33:58.412Z,29.3
2017-02-17T11:35:00.808Z,29.3
2017-02-17T11:36:00.889Z,29.3
2017-02-17T11:37:00.828Z,29.3
2017-02-17T11:38:01.045Z,29.3
2017-02-17T11:38:58.221Z,29.2
2017-02-17T11:39:58.283Z,29.3
2017-02-17T11:40:58.210Z,29.3
2017-02-17T11:42:01.266Z,29.2
2017-02-17T11:42:58.447Z,29.2
2017-02-17T11:43:59.769Z,29.1
2017-02-17T11:44:58.555Z,29.1
2017-02-17T11:46:01.542Z,29
2017-02-17T11:47:01.599Z,29
2017-02-17T11:47:58.454Z,28.9
2017-02-17T11:49:02.076Z,28.9
2017-02-17T11:49:58.724Z,28.8
2017-02-17T11:50:58.743Z,28.7
2017-02-17T11:51:58.718Z,28.6
2017-02-17T11:52:58.675Z,28.6
2017-02-17T11:54:01.571Z,28.6
2017-02-17T11:55:02.362Z,28.5
2017-02-17T11:56:01.737Z,28.5
2017-02-17T11:56:59.042Z,28.4
2017-02-17T11:57:58.896Z,28.4
2017-02-17T11:59:01.869Z,28.4
2017-02-17T12:00:02.016Z,28.3
2017-02-17T12:01:01.980Z,28.3
2017-02-17T12:01:59.224Z,28.3
2017-02-17T12:03:02.076Z,28.3
2017-02-17T12:04:02.193Z,28.3
2017-02-17T12:04:59.221Z,28.2
2017-02-17T12:06:02.170Z,28.2
2017-02-17T12:07:02.282Z,28.2
2017-02-17T12:08:02.452Z,28.2
2017-02-17T12:08:59.472Z,28.1
2017-02-17T12:10:00.757Z,28.1
2017-02-17T12:11:02.576Z,28.1
2017-02-17T12:11:59.549Z,28.1
2017-02-17T12:13:02.648Z,28.1
2017-02-17T12:13:59.811Z,28.1
2017-02-17T12:14:59.622Z,28.1
2017-02-17T12:15:59.868Z,28
2017-02-17T12:16:59.741Z,28
2017-02-17T12:17:59.742Z,27.9
2017-02-17T12:19:02.700Z,28
2017-02-17T12:19:59.847Z,28
2017-02-17T12:21:02.928Z,27.9
2017-02-17T12:22:00.038Z,27.9
2017-02-17T12:23:03.163Z,27.9
2017-02-17T12:24:00.287Z,27.8
2017-02-17T12:25:00.281Z,27.8
2017-02-17T12:26:03.357Z,27.9
2017-02-17T12:27:03.313Z,27.8
2017-02-17T12:28:03.447Z,27.8
2017-02-17T12:29:03.527Z,27.8
2017-02-17T12:30:00.717Z,27.8
2017-02-17T12:31:00.799Z,27.7
2017-02-17T12:32:00.935Z,27.7
2017-02-17T12:33:00.902Z,27.7
2017-02-17T12:34:00.934Z,27.7
2017-02-17T12:35:01.594Z,27.7
2017-02-17T12:36:00.943Z,27.7
2017-02-17T12:37:01.070Z,27.7
2017-02-17T12:38:00.953Z,27.7
2017-02-17T12:39:00.942Z,27.6
2017-02-17T12:40:01.150Z,27.7
2017-02-17T12:41:01.890Z,27.7
2017-02-17T12:42:01.214Z,27.7
2017-02-17T12:43:02.538Z,27.7
2017-02-17T12:44:01.443Z,27.7
2017-02-17T12:45:04.363Z,27.7
2017-02-17T12:46:01.542Z,27.7
2017-02-17T12:47:04.294Z,27.6
2017-02-17T12:48:06.271Z,27.6
2017-02-17T12:49:04.507Z,27.6
2017-02-17T12:50:01.613Z,27.5
2017-02-17T12:51:01.599Z,27.5
2017-02-17T12:52:01.618Z,27.5
2017-02-17T12:53:04.491Z,27.5
2017-02-17T12:54:04.512Z,27.6
2017-02-17T12:55:04.650Z,27.5
2017-02-17T12:56:01.727Z,27.5
2017-02-17T12:57:01.791Z,27.5
2017-02-17T12:58:02.020Z,27.5
2017-02-17T12:59:04.857Z,27.5
2017-02-17T13:00:01.926Z,27.4
2017-02-17T13:01:02.718Z,27.4
2017-02-17T13:02:01.985Z,27.5
2017-02-17T13:03:05.478Z,27.5
2017-02-17T13:04:04.935Z,27.5
2017-02-17T13:05:02.231Z,27.5
2017-02-17T13:06:05.048Z,27.6
2017-02-17T13:07:03.086Z,27.5
2017-02-17T13:08:05.116Z,27.6
2017-02-17T13:09:02.557Z,27.6
2017-02-17T13:10:02.484Z,27.6
2017-02-17T13:11:05.291Z,27.5
2017-02-17T13:12:02.527Z,27.5
2017-02-17T13:13:02.651Z,27.5
2017-02-17T13:14:05.656Z,27.5
2017-02-17T13:15:02.884Z,27.4
2017-02-17T13:16:02.751Z,27.4
2017-02-17T13:17:05.643Z,27.4
2017-02-17T13:18:05.749Z,27.4
2017-02-17T13:19:02.806Z,27.4
2017-02-17T13:20:02.824Z,27.4
2017-02-17T13:21:05.936Z,27.4
2017-02-17T13:22:02.969Z,27.4
2017-02-17T13:23:06.546Z,27.5
2017-02-17T13:24:06.068Z,27.6
2017-02-17T13:25:06.001Z,27.6
2017-02-17T13:26:03.411Z,27.7
2017-02-17T13:27:03.450Z,27.8
2017-02-17T13:28:06.199Z,27.9